createdAt,value
2023-03-23T15:58:18.330Z,436.00
2023-03-23T15:59:18.143Z,472.00
2023-03-23T16:00:18.122Z,464.00
2023-03-23T16:01:18.138Z,480.00
2023-03-23T16:02:18.156Z,464.00
2023-03-23T16:03:18.281Z,416.00
2023-03-23T16:04:18.091Z,388.00
2023-03-23T16:05:18.053Z,396.00
2023-03-23T16:06:23.224Z,368.00
2023-03-23T16:07:19.040Z,440.00
2023-03-23T16:08:18.020Z,396.00
2023-03-23T16:09:18.181Z,384.00
2023-03-23T16:10:17.999Z,380.00
2023-03-23T16:11:17.989Z,412.00
2023-03-23T16:12:17.976Z,404.00
2023-03-23T16:13:17.970Z,416.00
2023-03-23T16:14:17.971Z,376.00
2023-03-23T16:15:17.933Z,380.00
2023-03-23T16:16:18.055Z,368.00
2023-03-23T16:17:18.066Z,360.00
2023-03-23T16:18:17.910Z,332.00
2023-03-23T16:19:17.877Z,292.00
2023-03-23T16:20:17.877Z,288.00
2023-03-23T16:21:17.907Z,312.00
2023-03-23T16:22:18.772Z,316.00
2023-03-23T16:23:17.842Z,304.00
2023-03-23T16:24:17.817Z,288.00
2023-03-23T16:25:17.813Z,292.00
2023-03-23T16:26:17.793Z,296.00
2023-03-23T16:27:17.907Z,328.00
2023-03-23T16:28:17.767Z,300.00
2023-03-23T16:29:33.785Z,320.00
2023-03-23T16:30:18.739Z,320.00
2023-03-23T16:31:17.769Z,308.00
2023-03-23T16:32:17.722Z,316.00
2023-03-23T16:33:17.766Z,316.00
2023-03-23T16:34:17.683Z,304.00
2023-03-23T16:35:17.671Z,320.00
2023-03-23T16:36:17.684Z,312.00
2023-03-23T16:37:17.660Z,304.00
2023-03-23T16:38:17.647Z,272.00
2023-03-23T16:39:17.611Z,260.00
2023-03-23T16:40:17.640Z,260.00
2023-03-23T16:41:17.581Z,260.00
2023-03-23T16:42:17.586Z,252.00
2023-03-23T16:43:17.597Z,236.00
2023-03-23T16:44:17.562Z,236.00
2023-03-23T16:45:17.531Z,224.00
2023-03-23T16:46:17.583Z,216.00
2023-03-23T16:47:17.548Z,204.00
2023-03-23T16:48:17.516Z,200.00
2023-03-23T16:49:17.533Z,192.00
2023-03-23T16:50:17.476Z,192.00
2023-03-23T16:51:17.453Z,184.00
2023-03-23T16:52:17.458Z,184.00
2023-03-23T16:53:17.434Z,184.00
2023-03-23T16:54:17.425Z,180.00
2023-03-23T16:55:17.452Z,176.00
2023-03-23T16:56:17.397Z,172.00
2023-03-23T16:57:17.378Z,164.00
2023-03-23T16:58:18.128Z,164.00
2023-03-23T16:59:17.374Z,160.00
2023-03-23T17:00:17.378Z,152.00
2023-03-23T17:01:17.436Z,152.00
2023-03-23T17:02:17.407Z,148.00
2023-03-23T17:03:17.456Z,144.00
2023-03-23T17:04:17.319Z,136.00
2023-03-23T17:05:17.316Z,132.00
2023-03-23T17:06:17.263Z,132.00
2023-03-23T17:07:17.282Z,132.00
2023-03-23T17:08:17.262Z,140.00
2023-03-23T17:09:17.221Z,136.00
2023-03-23T17:10:17.214Z,124.00
2023-03-23T17:11:17.192Z,132.00
2023-03-23T17:12:17.425Z,136.00
2023-03-23T17:13:17.172Z,128.00
2023-03-23T17:14:17.178Z,116.00
2023-03-23T17:15:17.160Z,108.00
2023-03-23T17:16:17.140Z,96.00
2023-03-23T17:17:17.152Z,88.00
2023-03-23T17:18:17.136Z,84.00
2023-03-23T17:19:17.095Z,76.00
2023-03-23T17:20:17.080Z,72.00
2023-03-23T17:21:17.071Z,72.00
2023-03-23T17:22:17.075Z,72.00
2023-03-23T17:23:17.088Z,72.00
2023-03-23T17:24:17.059Z,68.00
2023-03-23T17:25:17.053Z,68.00
2023-03-23T17:26:16.999Z,64.00
2023-03-23T17:27:17.030Z,56.00
2023-03-23T17:28:19.473Z,52.00
2023-03-23T17:29:16.992Z,48.00
2023-03-23T17:30:16.963Z,40.00
2023-03-23T17:31:16.995Z,40.00
2023-03-23T17:32:16.939Z,32.00
2023-03-23T17:33:16.918Z,28.00
2023-03-23T17:34:18.756Z,24.00
2023-03-23T17:35:16.895Z,20.00
2023-03-23T17:36:16.962Z,16.00
2023-03-23T17:37:16.921Z,12.00
2023-03-23T17:38:16.856Z,8.00
2023-03-23T17:39:16.837Z,4.00
2023-03-23T17:40:16.873Z,4.00
2023-03-23T17:41:17.069Z,8.00
2023-03-23T17:42:16.821Z,4.00
2023-03-23T17:43:16.781Z,4.00
2023-03-23T17:44:16.768Z,4.00
2023-03-23T17:45:16.756Z,4.00
2023-03-23T17:46:16.798Z,4.00
2023-03-23T17:47:16.740Z,0.00
2023-03-23T17:48:16.737Z,0.00
2023-03-23T17:49:16.703Z,4.00
2023-03-23T17:50:16.716Z,4.00
2023-03-23T17:51:16.729Z,0.00
2023-03-23T17:52:16.676Z,0.00
2023-03-23T17:53:16.654Z,0.00
2023-03-23T17:54:16.668Z,0.00
2023-03-23T17:55:16.625Z,0.00
2023-03-23T17:56:16.636Z,0.00
2023-03-23T17:57:16.648Z,0.00
2023-03-23T17:58:16.593Z,0.00
2023-03-23T17:59:16.571Z,0.00
2023-03-23T18:00:16.608Z,0.00
2023-03-23T18:01:16.594Z,0.00
2023-03-23T18:02:16.603Z,0.00
2023-03-23T18:03:16.545Z,0.00
2023-03-23T18:04:16.521Z,0.00
2023-03-23T18:05:16.503Z,0.00
2023-03-23T18:06:16.506Z,0.00
2023-03-23T18:07:16.626Z,0.00
2023-03-23T18:08:16.481Z,0.00
2023-03-23T18:09:16.460Z,0.00
2023-03-23T18:10:16.445Z,0.00
2023-03-23T18:11:16.422Z,0.00
2023-03-23T18:12:16.432Z,0.00
2023-03-23T18:13:16.552Z,0.00
2023-03-23T18:14:16.386Z,0.00
2023-03-23T18:15:16.376Z,0.00
2023-03-23T18:16:16.378Z,0.00
2023-03-23T18:17:16.340Z,0.00
2023-03-23T18:18:16.350Z,0.00
2023-03-23T18:19:16.335Z,0.00
2023-03-23T18:20:16.305Z,0.00
2023-03-23T18:21:16.295Z,0.00
2023-03-23T18:22:16.280Z,0.00
2023-03-23T18:23:16.275Z,0.00
2023-03-23T18:24:16.321Z,0.00
2023-03-23T18:25:16.252Z,0.00
2023-03-23T18:26:16.277Z,0.00
2023-03-23T18:27:16.230Z,0.00
2023-03-23T18:28:16.211Z,0.00
2023-03-23T18:29:16.235Z,0.00
2023-03-23T18:30:16.204Z,0.00
2023-03-23T18:31:16.238Z,0.00
2023-03-23T18:32:16.160Z,0.00
2023-03-23T18:33:16.956Z,0.00
2023-03-23T18:34:16.121Z,0.00
2023-03-23T18:35:16.142Z,0.00
2023-03-23T18:36:16.142Z,0.00
2023-03-23T18:37:16.099Z,0.00
2023-03-23T18:38:16.080Z,0.00
2023-03-23T18:39:16.087Z,0.00
2023-03-23T18:40:16.061Z,0.00
2023-03-23T18:41:16.053Z,0.00
2023-03-23T18:42:16.033Z,0.00
2023-03-23T18:43:16.009Z,0.00
2023-03-23T18:44:16.059Z,0.00
2023-03-23T18:45:16.007Z,0.00
2023-03-23T18:46:16.002Z,0.00
2023-03-23T18:47:15.973Z,0.00
2023-03-23T18:48:15.976Z,0.00
2023-03-23T18:49:15.949Z,0.00
2023-03-23T18:50:15.954Z,0.00
2023-03-23T18:51:15.929Z,0.00
2023-03-23T18:52:15.904Z,0.00
2023-03-23T18:53:15.894Z,0.00
2023-03-23T18:54:15.889Z,0.00
2023-03-23T18:55:15.866Z,0.00
2023-03-23T18:56:15.881Z,0.00
2023-03-23T18:57:15.900Z,0.00
2023-03-23T18:58:15.844Z,0.00
2023-03-23T18:59:15.807Z,0.00
2023-03-23T19:00:15.815Z,0.00
2023-03-23T19:01:15.846Z,0.00
2023-03-23T19:02:15.819Z,0.00
2023-03-23T19:03:15.842Z,0.00
2023-03-23T19:04:15.744Z,0.00
2023-03-23T19:05:15.739Z,0.00
2023-03-23T19:06:15.731Z,0.00
2023-03-23T19:07:15.743Z,0.00
2023-03-23T19:08:15.689Z,0.00
2023-03-23T19:09:15.681Z,0.00
2023-03-23T19:10:15.673Z,0.00
2023-03-23T19:11:15.672Z,0.00
2023-03-23T19:12:15.679Z,0.00
2023-03-23T19:13:15.657Z,0.00
2023-03-23T19:14:15.615Z,0.00
2023-03-23T19:15:15.625Z,0.00
2023-03-23T19:16:15.621Z,0.00
2023-03-23T19:17:15.603Z,0.00
2023-03-23T19:18:15.565Z,0.00
2023-03-23T19:19:15.578Z,0.00
2023-03-23T19:20:23.651Z,0.00
2023-03-23T19:21:19.717Z,0.00
2023-03-23T19:22:16.518Z,0.00
2023-03-23T19:23:15.503Z,0.00
2023-03-23T19:24:15.503Z,0.00
2023-03-23T19:25:15.500Z,0.00
2023-03-23T19:26:15.461Z,0.00
2023-03-23T19:27:15.571Z,0.00
2023-03-23T19:30:15.429Z,0.00
2023-03-23T19:31:15.481Z,0.00
2023-03-23T19:32:15.438Z,0.00
2023-03-23T19:33:15.365Z,0.00
2023-03-23T19:34:15.610Z,0.00
2023-03-23T19:36:15.367Z,0.00
2023-03-23T19:37:16.276Z,0.00
2023-03-23T19:38:15.319Z,0.00
2023-03-23T19:39:15.332Z,0.00
2023-03-23T19:40:35.541Z,0.00
2023-03-23T19:41:18.711Z,0.00
2023-03-23T19:42:15.268Z,0.00
2023-03-23T19:43:15.254Z,0.00
2023-03-23T19:44:15.643Z,0.00
2023-03-23T19:45:15.253Z,0.00
2023-03-23T19:46:15.241Z,0.00
2023-03-23T19:47:15.292Z,0.00
2023-03-23T19:48:16.110Z,0.00
2023-03-23T19:49:15.171Z,0.00
2023-03-23T19:50:15.338Z,0.00
2023-03-23T19:51:15.132Z,0.00
2023-03-23T19:52:17.693Z,0.00
2023-03-23T19:53:15.095Z,0.00
2023-03-23T19:54:15.384Z,0.00
2023-03-23T19:55:15.116Z,0.00
2023-03-23T19:56:15.068Z,0.00
2023-03-23T19:57:15.135Z,0.00
2023-03-23T19:58:15.714Z,0.00
2023-03-23T19:59:15.099Z,0.00
2023-03-23T20:00:15.046Z,0.00
2023-03-23T20:01:15.006Z,0.00
2023-03-23T20:02:15.176Z,0.00
2023-03-23T20:03:15.029Z,0.00
2023-03-23T20:04:15.263Z,0.00
2023-03-23T20:05:15.012Z,0.00
2023-03-23T20:06:14.958Z,0.00
2023-03-23T20:07:14.962Z,0.00
2023-03-23T20:08:14.973Z,0.00
2023-03-23T20:09:14.907Z,0.00
2023-03-23T20:10:15.118Z,0.00
2023-03-23T20:11:14.872Z,0.00
2023-03-23T20:12:14.861Z,0.00
2023-03-23T20:13:14.875Z,0.00
2023-03-23T20:14:14.875Z,0.00
2023-03-23T20:15:15.154Z,0.00
2023-03-23T20:16:14.814Z,0.00
2023-03-23T20:17:14.888Z,0.00
2023-03-23T20:18:14.846Z,0.00
2023-03-23T20:19:14.771Z,0.00
2023-03-23T20:20:14.786Z,0.00
2023-03-23T20:21:14.778Z,0.00
2023-03-23T20:22:14.786Z,0.00
2023-03-23T20:23:14.715Z,0.00
2023-03-23T20:24:14.703Z,0.00
2023-03-23T20:25:15.263Z,0.00
2023-03-23T20:26:14.707Z,0.00
2023-03-23T20:27:14.659Z,0.00
2023-03-23T20:28:14.684Z,0.00
2023-03-23T20:29:14.642Z,0.00
2023-03-23T20:30:14.633Z,0.00
2023-03-23T20:31:16.926Z,0.00
2023-03-23T20:32:15.600Z,0.00
2023-03-23T20:33:14.618Z,0.00
2023-03-23T20:34:14.580Z,0.00
2023-03-23T20:35:14.762Z,0.00
2023-03-23T20:36:14.568Z,0.00
2023-03-23T20:37:14.549Z,0.00
2023-03-23T20:38:14.529Z,0.00
2023-03-23T20:39:14.508Z,0.00
2023-03-23T20:40:14.520Z,0.00
2023-03-23T20:41:14.514Z,0.00
2023-03-23T20:42:14.498Z,0.00
2023-03-23T20:43:14.454Z,0.00
2023-03-23T20:44:14.482Z,0.00
2023-03-23T20:45:14.430Z,0.00
2023-03-23T20:46:14.432Z,0.00
2023-03-23T20:47:14.414Z,0.00
2023-03-23T20:48:14.416Z,0.00
2023-03-23T20:49:14.382Z,0.00
2023-03-23T20:50:14.393Z,0.00
2023-03-23T20:51:14.371Z,0.00
2023-03-23T20:52:14.367Z,0.00
2023-03-23T20:53:14.335Z,0.00
2023-03-23T20:54:14.323Z,0.00
2023-03-23T20:55:14.321Z,0.00
2023-03-23T20:56:14.291Z,0.00
2023-03-23T20:57:14.347Z,0.00
2023-03-23T20:58:14.272Z,0.00
2023-03-23T20:59:14.251Z,0.00
2023-03-23T21:00:14.244Z,0.00
2023-03-23T21:01:14.337Z,0.00
2023-03-23T21:02:14.246Z,0.00
2023-03-23T21:03:14.212Z,0.00
2023-03-23T21:04:14.208Z,0.00
2023-03-23T21:05:14.172Z,0.00
2023-03-23T21:06:14.179Z,0.00
2023-03-23T21:07:14.144Z,0.00
2023-03-23T21:08:14.212Z,0.00
2023-03-23T21:09:14.153Z,0.00
2023-03-23T21:10:14.109Z,0.00
2023-03-23T21:11:14.094Z,0.00
2023-03-23T21:12:14.105Z,0.00
2023-03-23T21:13:14.068Z,0.00
2023-03-23T21:14:14.098Z,0.00
2023-03-23T21:15:14.035Z,0.00
2023-03-23T21:16:14.026Z,0.00
2023-03-23T21:17:14.003Z,0.00
2023-03-23T21:18:14.009Z,0.00
2023-03-23T21:19:13.987Z,0.00
2023-03-23T21:20:14.018Z,0.00
2023-03-23T21:21:14.000Z,0.00
2023-03-23T21:22:13.946Z,0.00
2023-03-23T21:23:13.943Z,0.00
2023-03-23T21:24:13.927Z,0.00
2023-03-23T21:25:13.925Z,0.00
2023-03-23T21:26:13.927Z,0.00
2023-03-23T21:27:13.900Z,0.00
2023-03-23T21:28:13.868Z,0.00
2023-03-23T21:29:13.858Z,0.00
2023-03-23T21:30:13.853Z,0.00
2023-03-23T21:31:13.824Z,0.00
2023-03-23T21:32:13.868Z,0.00
2023-03-23T21:33:13.800Z,0.00
2023-03-23T21:34:13.793Z,0.00
2023-03-23T21:35:13.795Z,0.00
2023-03-23T21:36:13.770Z,0.00
2023-03-23T21:37:13.740Z,0.00
2023-03-23T21:38:13.768Z,0.00
2023-03-23T21:39:13.734Z,0.00
2023-03-23T21:40:13.717Z,0.00
2023-03-23T21:41:13.699Z,0.00
2023-03-23T21:42:13.732Z,0.00
2023-03-23T21:43:13.665Z,0.00
2023-03-23T21:44:13.736Z,0.00
2023-03-23T21:45:13.689Z,0.00
2023-03-23T21:46:13.669Z,0.00
2023-03-23T21:47:13.725Z,0.00
2023-03-23T21:48:13.661Z,0.00
2023-03-23T21:49:13.693Z,0.00
2023-03-23T21:50:13.630Z,0.00
2023-03-23T21:51:13.602Z,0.00
2023-03-23T21:52:13.638Z,0.00
2023-03-23T21:53:13.560Z,0.00
2023-03-23T21:54:13.620Z,0.00
2023-03-23T21:55:13.544Z,0.00
2023-03-23T21:56:13.501Z,0.00
2023-03-23T21:57:13.526Z,0.00
2023-03-23T21:58:13.499Z,0.00
2023-03-23T21:59:13.487Z,0.00
2023-03-23T22:00:13.482Z,0.00
2023-03-23T22:01:13.456Z,0.00
2023-03-23T22:02:13.423Z,0.00
2023-03-23T22:03:13.433Z,0.00
2023-03-23T22:04:13.416Z,0.00
2023-03-23T22:05:13.437Z,0.00
2023-03-23T22:06:13.403Z,0.00
2023-03-23T22:07:13.436Z,0.00
2023-03-23T22:08:13.398Z,0.00
2023-03-23T22:09:13.396Z,0.00
2023-03-23T22:10:13.383Z,0.00
2023-03-23T22:11:13.309Z,0.00
2023-03-23T22:12:13.312Z,0.00
2023-03-23T22:13:13.332Z,0.00
2023-03-23T22:14:13.263Z,0.00
2023-03-23T22:15:13.298Z,0.00
2023-03-23T22:16:13.314Z,0.00
2023-03-23T22:17:13.228Z,0.00
2023-03-23T22:18:13.216Z,0.00
2023-03-23T22:19:13.196Z,0.00
2023-03-23T22:20:13.191Z,0.00
2023-03-23T22:21:13.229Z,0.00
2023-03-23T22:22:13.164Z,0.00
2023-03-23T22:23:13.158Z,0.00
2023-03-23T22:24:13.128Z,0.00
2023-03-23T22:25:13.126Z,0.00
2023-03-23T22:26:13.116Z,0.00
2023-03-23T22:27:13.124Z,0.00
2023-03-23T22:28:13.091Z,0.00
2023-03-23T22:29:13.083Z,0.00
2023-03-23T22:30:13.084Z,0.00
2023-03-23T22:31:13.129Z,0.00
2023-03-23T22:32:13.054Z,0.00
2023-03-23T22:33:13.036Z,0.00
2023-03-23T22:34:13.008Z,0.00
2023-03-23T22:35:13.013Z,0.00
2023-03-23T22:36:13.014Z,0.00
2023-03-23T22:37:13.010Z,0.00
2023-03-23T22:38:12.953Z,0.00
2023-03-23T22:39:12.959Z,0.00
2023-03-23T22:40:12.930Z,0.00
2023-03-23T22:41:12.937Z,0.00
2023-03-23T22:42:13.584Z,0.00
2023-03-23T22:43:12.903Z,0.00
2023-03-23T22:44:12.890Z,0.00
2023-03-23T22:45:12.870Z,0.00
2023-03-23T22:46:12.934Z,0.00
2023-03-23T22:47:12.905Z,0.00
2023-03-23T22:48:12.834Z,0.00
2023-03-23T22:49:12.811Z,0.00
2023-03-23T22:50:12.822Z,0.00
2023-03-23T22:51:12.821Z,0.00
2023-03-23T22:52:12.782Z,0.00
2023-03-23T22:53:12.770Z,0.00
2023-03-23T22:54:12.778Z,0.00
2023-03-23T22:55:12.762Z,0.00
2023-03-23T22:56:12.725Z,0.00
2023-03-23T22:57:12.819Z,0.00
2023-03-23T22:58:12.717Z,0.00
2023-03-23T22:59:12.681Z,0.00
2023-03-23T23:00:12.691Z,0.00
2023-03-23T23:01:12.706Z,0.00
2023-03-23T23:02:12.675Z,0.00
2023-03-23T23:03:12.647Z,0.00
2023-03-23T23:04:12.697Z,0.00
2023-03-23T23:05:12.697Z,0.00
2023-03-23T23:06:12.738Z,0.00
2023-03-23T23:07:13.391Z,0.00
2023-03-23T23:08:12.671Z,0.00
2023-03-23T23:09:12.668Z,0.00
2023-03-23T23:10:12.560Z,0.00
2023-03-23T23:11:12.546Z,0.00
2023-03-23T23:12:12.548Z,0.00
2023-03-23T23:13:12.517Z,0.00
2023-03-23T23:14:12.504Z,0.00
2023-03-23T23:15:12.480Z,0.00
2023-03-23T23:16:12.556Z,0.00
2023-03-23T23:17:12.453Z,0.00
2023-03-23T23:18:12.662Z,0.00
2023-03-23T23:19:12.446Z,0.00
2023-03-23T23:20:12.417Z,0.00
2023-03-23T23:21:12.417Z,0.00
2023-03-23T23:22:18.976Z,0.00
2023-03-23T23:23:13.385Z,0.00
2023-03-23T23:24:12.396Z,0.00
2023-03-23T23:25:12.353Z,0.00
2023-03-23T23:26:12.337Z,0.00
2023-03-23T23:27:12.317Z,0.00
2023-03-23T23:28:12.332Z,0.00
2023-03-23T23:29:12.313Z,0.00
2023-03-23T23:30:12.315Z,0.00
2023-03-23T23:31:12.300Z,0.00
2023-03-23T23:32:12.266Z,0.00
2023-03-23T23:33:12.251Z,0.00
2023-03-23T23:34:12.241Z,0.00
2023-03-23T23:35:12.217Z,0.00
2023-03-23T23:36:12.246Z,0.00
2023-03-23T23:37:12.209Z,0.00
2023-03-23T23:38:12.189Z,0.00
2023-03-23T23:39:12.173Z,0.00
2023-03-23T23:40:12.174Z,0.00
2023-03-23T23:41:12.178Z,0.00
2023-03-23T23:42:12.145Z,0.00
2023-03-23T23:43:12.126Z,0.00
2023-03-23T23:44:12.118Z,0.00
2023-03-23T23:45:12.089Z,0.00
2023-03-23T23:46:12.128Z,0.00
2023-03-23T23:47:12.087Z,0.00
2023-03-23T23:48:12.056Z,0.00
2023-03-23T23:49:12.059Z,0.00
2023-03-23T23:50:12.041Z,0.00
2023-03-23T23:51:12.014Z,0.00
2023-03-23T23:52:12.011Z,0.00
2023-03-23T23:53:11.997Z,0.00
2023-03-23T23:54:11.997Z,0.00
2023-03-23T23:55:12.072Z,0.00
2023-03-23T23:56:11.945Z,0.00
2023-03-23T23:57:11.977Z,0.00
2023-03-23T23:58:11.942Z,0.00
2023-03-23T23:59:11.907Z,0.00
